PAAQ METAR and TAF weather

Enter ICAO airport designator
Station Type Date Time Source
PAAQ METAR 2019/06/19 00:53 UTC NOAA

PAAQ 190053Z 10004KT 10SM FEW015 SCT025 OVC049 13/10 A3001 RMK AO2 SLP163 T01330100


Station Type Date Time Source
PAAQ Decoded METAR 2019/06/19 00:53 UTC NOAA

PALMER MUNICIPAL AIRPORT, AK, United States (PAAQ) 61-36N 149-06W
Jun 18, 2019 - 08:53 PM EDT / 2019.06.19 0053 UTC
Wind: from the E (100 degrees) at 5 MPH (4 KT):0
Visibility: 10 mile(s):0
Sky conditions: overcast
Temperature: 55.9 F (13.3 C)
Dew Point: 50.0 F (10.0 C)
Relative Humidity: 80%
Pressure (altimeter): 30.01 in. Hg (1016 hPa)
ob: PAAQ 190053Z 10004KT 10SM FEW015 SCT025 OVC049 13/10 A3001 RMK AO2 SLP163 T01330100
cycle: 1

Station Type Date Time Source
PAAQ TAF 2019/06/18 21:30 UTC NOAA

TAF
AMD PAAQ 182128Z 1821/1918 00000KT P6SM -SHRA SCT025 BKN035 OVC050
TEMPO 1821/1824 BKN015
FM190000 14005KT P6SM VCSH SCT025 BKN050
FM190300 VRB06KT P6SM BKN100

Example: see airport list